createdAt,value
2018-08-10T00:00:35.256Z,20.85
2018-08-10T00:03:03.745Z,20.81
2018-08-10T00:05:31.958Z,20.80
2018-08-10T00:08:00.374Z,20.78
2018-08-10T00:10:28.769Z,20.73
2018-08-10T00:12:57.570Z,20.75
2018-08-10T00:15:25.781Z,20.57
2018-08-10T00:17:54.336Z,20.57
2018-08-10T00:20:25.211Z,20.54
2018-08-10T00:23:32.343Z,20.55
2018-08-10T00:26:00.583Z,20.51
2018-08-10T00:28:28.832Z,20.46
2018-08-10T00:30:57.000Z,20.46
2018-08-10T00:33:25.503Z,20.48
2018-08-10T00:35:53.824Z,20.42
2018-08-10T00:38:22.209Z,20.39
2018-08-10T00:40:50.445Z,20.23
2018-08-10T00:43:18.681Z,20.25
2018-08-10T00:45:48.261Z,20.20
2018-08-10T00:48:16.469Z,20.07
2018-08-10T00:50:44.902Z,20.04
2018-08-10T00:53:13.184Z,20.07
2018-08-10T00:55:41.429Z,20.05
2018-08-10T00:58:09.682Z,19.99
2018-08-10T01:00:37.975Z,19.67
2018-08-10T01:03:06.214Z,19.51
2018-08-10T01:05:35.090Z,19.39
2018-08-10T01:08:03.357Z,19.31
2018-08-10T01:10:32.042Z,19.21
2018-08-10T01:13:00.340Z,19.20
2018-08-10T01:15:29.010Z,19.18
2018-08-10T01:17:57.313Z,19.08
2018-08-10T01:20:25.858Z,19.06
2018-08-10T01:22:59.951Z,18.91
2018-08-10T01:25:28.477Z,18.91
2018-08-10T01:27:58.720Z,18.90
2018-08-10T01:30:29.822Z,18.87
2018-08-10T01:32:59.304Z,18.81
2018-08-10T01:35:28.385Z,18.74
2018-08-10T01:37:57.917Z,18.58
2018-08-10T01:40:26.172Z,18.51
2018-08-10T01:42:54.353Z,18.42
2018-08-10T01:45:22.551Z,18.34
2018-08-10T01:47:50.834Z,18.41
2018-08-10T01:50:19.308Z,18.40
2018-08-10T01:52:47.488Z,18.37
2018-08-10T01:55:15.696Z,18.32
2018-08-10T01:57:44.241Z,18.30
2018-08-10T02:00:12.764Z,18.36
2018-08-10T02:02:41.082Z,18.29
2018-08-10T02:05:11.753Z,18.21
2018-08-10T02:07:40.724Z,18.23
2018-08-10T02:10:11.874Z,18.15
2018-08-10T02:12:41.060Z,18.14
2018-08-10T02:15:12.899Z,17.94
2018-08-10T02:17:41.418Z,17.96
2018-08-10T02:20:12.142Z,18.08
2018-08-10T02:22:40.353Z,17.98
2018-08-10T02:25:10.508Z,17.91
2018-08-10T02:27:39.061Z,17.90
2018-08-10T02:30:09.835Z,17.87
2018-08-10T02:32:38.388Z,17.77
2018-08-10T02:35:07.336Z,17.72
2018-08-10T02:37:36.207Z,17.75
2018-08-10T02:40:07.845Z,17.76
2018-08-10T02:42:36.334Z,17.84
2018-08-10T02:45:05.839Z,17.77
2018-08-10T02:47:34.029Z,17.81
2018-08-10T02:50:02.246Z,17.83
2018-08-10T02:52:30.723Z,17.88
2018-08-10T02:54:59.724Z,17.95
2018-08-10T02:57:27.921Z,17.87
2018-08-10T02:59:56.431Z,17.82
2018-08-10T03:02:24.987Z,17.85
2018-08-10T03:04:53.343Z,17.90
2018-08-10T03:07:21.583Z,17.80
2018-08-10T03:09:49.854Z,17.69
2018-08-10T03:12:18.030Z,17.78
2018-08-10T03:14:46.305Z,17.68
2018-08-10T03:17:14.508Z,17.54
2018-08-10T03:19:42.752Z,17.58
2018-08-10T03:22:11.305Z,17.46
2018-08-10T03:24:40.551Z,17.40
2018-08-10T03:27:08.788Z,17.40
2018-08-10T03:29:37.397Z,17.47
2018-08-10T03:32:05.950Z,17.42
2018-08-10T03:34:34.457Z,17.33
2018-08-10T03:37:02.752Z,17.40
2018-08-10T03:39:31.033Z,17.45
2018-08-10T03:41:59.350Z,17.41
2018-08-10T03:44:27.869Z,17.30
2018-08-10T03:46:56.304Z,17.40
2018-08-10T03:49:24.934Z,17.43
2018-08-10T03:51:53.124Z,17.24
2018-08-10T03:54:21.894Z,17.18
2018-08-10T03:56:50.383Z,17.31
2018-08-10T03:59:18.674Z,17.17
2018-08-10T04:01:47.242Z,17.09
2018-08-10T04:04:15.574Z,17.06
2018-08-10T04:06:43.833Z,17.14
2018-08-10T04:09:12.749Z,17.10
2018-08-10T04:11:41.637Z,16.97
2018-08-10T04:14:10.715Z,16.97
2018-08-10T04:16:39.447Z,16.94
2018-08-10T04:19:08.419Z,17.01
2018-08-10T04:21:36.606Z,17.14
2018-08-10T04:24:05.015Z,17.11
2018-08-10T04:26:33.654Z,16.98
2018-08-10T04:29:01.906Z,17.04
2018-08-10T04:31:30.093Z,17.06
2018-08-10T04:33:58.328Z,17.12
2018-08-10T04:36:26.553Z,17.18
2018-08-10T04:38:54.875Z,17.09
2018-08-10T04:41:23.086Z,17.16
2018-08-10T04:43:51.923Z,16.98
2018-08-10T04:46:20.223Z,16.98
2018-08-10T04:48:48.485Z,17.01
2018-08-10T04:51:17.612Z,17.05
2018-08-10T04:53:45.854Z,17.06
2018-08-10T04:56:14.062Z,17.13
2018-08-10T04:58:42.914Z,17.02
2018-08-10T05:01:11.106Z,17.03
2018-08-10T05:03:39.353Z,16.96
2018-08-10T05:06:07.633Z,16.96
2018-08-10T05:08:35.801Z,16.93
2018-08-10T05:11:04.056Z,16.84
2018-08-10T05:13:32.324Z,16.92
2018-08-10T05:16:00.629Z,16.89
2018-08-10T05:18:29.210Z,17.05
2018-08-10T05:20:57.444Z,17.08
2018-08-10T05:23:25.781Z,17.20
2018-08-10T05:25:54.207Z,17.34
2018-08-10T05:28:22.723Z,17.38
2018-08-10T05:30:51.282Z,17.49
2018-08-10T05:33:20.047Z,17.51
2018-08-10T05:35:48.242Z,17.50
2018-08-10T05:38:16.789Z,17.53
2018-08-10T05:40:46.680Z,17.51
2018-08-10T05:43:16.507Z,17.61
2018-08-10T05:45:44.705Z,17.80
2018-08-10T05:48:13.100Z,17.65
2018-08-10T05:50:41.426Z,17.65
2018-08-10T05:53:09.696Z,17.87
2018-08-10T05:55:37.963Z,17.90
2018-08-10T05:58:06.289Z,17.89
2018-08-10T06:00:34.836Z,17.78
2018-08-10T06:03:03.559Z,17.83
2018-08-10T06:05:32.139Z,17.88
2018-08-10T06:08:00.498Z,17.81
2018-08-10T06:10:30.045Z,18.02
2018-08-10T06:12:58.585Z,18.38
2018-08-10T06:15:26.855Z,18.32
2018-08-10T06:17:55.065Z,18.08
2018-08-10T06:20:23.302Z,18.03
2018-08-10T06:22:51.687Z,18.02
2018-08-10T06:25:19.906Z,18.06
2018-08-10T06:27:48.273Z,18.16
2018-08-10T06:30:16.618Z,18.46
2018-08-10T06:32:44.917Z,18.64
2018-08-10T06:35:13.457Z,18.45
2018-08-10T06:37:41.741Z,18.34
2018-08-10T06:40:10.017Z,18.54
2018-08-10T06:42:38.300Z,18.40
2018-08-10T06:45:07.268Z,18.75
2018-08-10T06:47:38.955Z,19.01
2018-08-10T06:50:07.835Z,18.64
2018-08-10T06:52:36.130Z,18.71
2018-08-10T06:55:04.697Z,19.03
2018-08-10T06:57:33.040Z,19.07
2018-08-10T07:00:01.516Z,19.05
2018-08-10T07:02:29.763Z,19.41
2018-08-10T07:04:58.261Z,19.41
2018-08-10T07:07:26.575Z,19.14
2018-08-10T07:09:54.899Z,19.18
2018-08-10T07:12:23.343Z,19.13
2018-08-10T07:14:51.903Z,19.57
2018-08-10T07:17:20.622Z,19.60
2018-08-10T07:19:49.104Z,19.44
2018-08-10T07:22:17.686Z,19.50
2018-08-10T07:24:46.254Z,19.33
2018-08-10T07:27:15.184Z,19.45
2018-08-10T07:29:45.383Z,19.72
2018-08-10T07:32:15.734Z,20.08
2018-08-10T07:34:43.941Z,19.81
2018-08-10T07:37:14.641Z,20.11
2018-08-10T07:39:44.637Z,19.88
2018-08-10T07:42:12.900Z,20.16
2018-08-10T07:44:41.236Z,20.67
2018-08-10T07:47:10.095Z,20.60
2018-08-10T07:49:39.324Z,20.84
2018-08-10T07:52:07.878Z,21.15
2018-08-10T07:54:37.619Z,21.35
2018-08-10T07:57:06.491Z,21.54
2018-08-10T07:59:34.712Z,21.33
2018-08-10T08:02:03.003Z,21.28
2018-08-10T08:04:31.555Z,21.08
2018-08-10T08:07:00.022Z,20.85
2018-08-10T08:09:28.328Z,21.00
2018-08-10T08:11:56.830Z,21.48
2018-08-10T08:14:25.088Z,21.80
2018-08-10T08:16:53.287Z,21.75
2018-08-10T08:19:21.538Z,21.71
2018-08-10T08:22:13.114Z,21.65
2018-08-10T08:24:41.837Z,21.76
2018-08-10T08:27:10.767Z,22.08
2018-08-10T08:29:38.990Z,22.34
2018-08-10T08:32:07.649Z,22.14
2018-08-10T08:34:35.836Z,22.08
2018-08-10T08:37:04.576Z,21.73
2018-08-10T08:40:43.350Z,21.95
2018-08-10T08:43:11.951Z,22.36
2018-08-10T08:45:59.297Z,22.93
2018-08-10T08:48:29.103Z,23.18
2018-08-10T08:50:58.711Z,23.75
2018-08-10T08:53:27.229Z,23.71
2018-08-10T08:56:03.971Z,23.73
2018-08-10T08:58:33.000Z,24.01
2018-08-10T09:01:01.511Z,24.21
2018-08-10T09:03:47.144Z,23.94
2018-08-10T09:06:15.403Z,24.41
2018-08-10T09:09:50.249Z,25.00
2018-08-10T09:12:18.964Z,25.25
2018-08-10T09:14:49.732Z,25.04
2018-08-10T09:17:18.140Z,24.51
2018-08-10T09:19:46.392Z,24.36
2018-08-10T09:22:15.028Z,24.27
2018-08-10T09:24:43.917Z,24.38
2018-08-10T09:27:12.160Z,24.62
2018-08-10T09:29:40.617Z,24.25
2018-08-10T09:32:09.058Z,23.62
2018-08-10T09:34:37.260Z,23.60
2018-08-10T09:37:06.900Z,23.39
2018-08-10T09:39:35.504Z,22.99
2018-08-10T09:42:04.057Z,23.09
2018-08-10T09:44:33.532Z,22.76
2018-08-10T09:47:02.512Z,22.61
2018-08-10T09:49:34.736Z,23.40
2018-08-10T09:52:03.809Z,24.35
2018-08-10T09:54:32.684Z,24.88
2018-08-10T09:57:04.817Z,24.85
2018-08-10T09:59:33.051Z,24.30
2018-08-10T10:02:07.547Z,24.13
2018-08-10T10:04:36.288Z,24.14
2018-08-10T10:07:04.898Z,24.17
2018-08-10T10:09:33.539Z,24.25
2018-08-10T10:12:01.821Z,24.32
2018-08-10T10:14:31.568Z,23.74
2018-08-10T10:17:01.539Z,24.27
2018-08-10T10:19:31.664Z,24.77
2018-08-10T10:22:02.079Z,25.81
2018-08-10T10:24:31.218Z,25.88
2018-08-10T10:26:59.826Z,25.59
2018-08-10T10:29:28.101Z,26.66
2018-08-10T10:31:56.556Z,26.36
2018-08-10T10:34:25.199Z,25.70
2018-08-10T10:36:53.611Z,25.34
2018-08-10T10:39:21.853Z,25.66
2018-08-10T10:41:50.680Z,26.84
2018-08-10T10:44:19.506Z,27.28
2018-08-10T10:46:47.789Z,27.63
2018-08-10T10:49:16.241Z,28.10
2018-08-10T10:51:45.462Z,28.89
2018-08-10T10:54:13.648Z,28.40
2018-08-10T10:56:42.439Z,28.42
2018-08-10T10:59:10.583Z,28.27
2018-08-10T11:01:39.149Z,27.81
2018-08-10T11:04:07.525Z,27.50
2018-08-10T11:06:36.105Z,27.54
2018-08-10T11:09:06.384Z,27.69
2018-08-10T11:11:34.603Z,27.91
2018-08-10T11:14:03.333Z,27.96
2018-08-10T11:16:31.698Z,27.03
2018-08-10T11:19:00.240Z,26.21
2018-08-10T11:21:28.885Z,26.49
2018-08-10T11:23:57.617Z,26.46
2018-08-10T11:26:26.140Z,26.26
2018-08-10T11:28:54.476Z,26.05
2018-08-10T11:31:23.704Z,25.55
2018-08-10T11:33:52.558Z,25.42
2018-08-10T11:36:20.785Z,25.80
2018-08-10T11:38:49.320Z,26.44
2018-08-10T11:41:17.906Z,26.52
2018-08-10T11:43:46.405Z,26.60
2018-08-10T11:46:14.906Z,26.40
2018-08-10T11:48:43.339Z,26.58
2018-08-10T11:51:11.687Z,27.43
2018-08-10T11:53:40.917Z,27.98
2018-08-10T11:56:09.684Z,28.10
2018-08-10T11:58:38.018Z,27.50
2018-08-10T12:01:06.517Z,27.29
2018-08-10T12:03:34.829Z,27.29
2018-08-10T12:06:03.387Z,26.01
2018-08-10T12:08:32.583Z,26.58
2018-08-10T12:11:01.129Z,27.35
2018-08-10T12:13:29.720Z,28.45
2018-08-10T12:15:58.232Z,27.99
2018-08-10T12:18:26.925Z,27.63
2018-08-10T12:20:55.141Z,27.74
2018-08-10T12:23:23.845Z,27.48
2018-08-10T12:25:52.424Z,27.83
2018-08-10T12:28:21.619Z,27.82
2018-08-10T12:30:50.252Z,28.67
2018-08-10T12:33:18.729Z,28.20
2018-08-10T12:35:47.026Z,27.78
2018-08-10T12:38:15.258Z,27.50
2018-08-10T12:40:43.500Z,27.15
2018-08-10T12:43:12.090Z,27.41
2018-08-10T12:45:40.363Z,27.29
2018-08-10T12:48:08.956Z,27.13
2018-08-10T12:50:37.286Z,27.93
2018-08-10T12:53:05.436Z,28.13
2018-08-10T12:55:33.597Z,27.60
2018-08-10T12:58:02.055Z,27.36
2018-08-10T13:00:31.376Z,26.75
2018-08-10T13:03:00.063Z,27.15
2018-08-10T13:05:28.789Z,27.83
2018-08-10T13:07:57.861Z,28.99
2018-08-10T13:10:26.076Z,28.90
2018-08-10T13:12:54.838Z,29.00
2018-08-10T13:15:23.027Z,28.86
2018-08-10T13:17:51.537Z,28.03
2018-08-10T13:20:19.797Z,28.07
2018-08-10T13:22:47.964Z,29.28
2018-08-10T13:25:16.525Z,29.29
2018-08-10T13:27:44.763Z,28.44
2018-08-10T13:30:13.332Z,27.38
2018-08-10T13:32:41.555Z,27.12
2018-08-10T13:35:16.860Z,27.16
2018-08-10T13:37:45.112Z,27.05
2018-08-10T13:40:13.448Z,26.38
2018-08-10T13:42:41.734Z,26.79
2018-08-10T13:45:12.774Z,30.09
2018-08-10T13:47:41.301Z,33.08
2018-08-10T13:50:13.437Z,33.42
2018-08-10T13:52:41.636Z,33.69
2018-08-10T13:55:13.981Z,34.78
2018-08-10T13:57:42.492Z,38.33
2018-08-10T14:00:17.658Z,39.66
2018-08-10T14:02:46.573Z,38.43
2018-08-10T14:05:14.726Z,38.82
2018-08-10T14:07:43.591Z,39.49
2018-08-10T14:10:13.091Z,38.49
2018-08-10T14:12:42.037Z,39.30
2018-08-10T14:15:10.924Z,38.08
2018-08-10T14:17:39.259Z,40.56
2018-08-10T14:20:08.754Z,41.18
2018-08-10T14:22:37.066Z,37.80
2018-08-10T14:25:05.950Z,37.27
2018-08-10T14:27:34.460Z,39.35
2018-08-10T14:30:05.366Z,40.33
2018-08-10T14:32:33.624Z,41.26
2018-08-10T14:35:02.133Z,38.81
2018-08-10T14:37:30.364Z,36.15
2018-08-10T14:39:58.526Z,35.85
2018-08-10T14:42:26.758Z,34.29
2018-08-10T14:44:54.987Z,36.18
2018-08-10T14:47:24.132Z,34.79
2018-08-10T14:49:52.423Z,36.23
2018-08-10T14:52:20.624Z,39.48
2018-08-10T14:54:48.999Z,38.77
2018-08-10T14:57:18.283Z,38.77
2018-08-10T14:59:46.491Z,40.75
2018-08-10T15:02:14.676Z,40.26
2018-08-10T15:04:42.876Z,41.15
2018-08-10T15:07:11.277Z,40.67
2018-08-10T15:09:39.470Z,42.74
2018-08-10T15:12:07.897Z,43.16
2018-08-10T15:14:36.032Z,43.05
2018-08-10T15:17:04.712Z,42.65
2018-08-10T15:19:33.140Z,42.46
2018-08-10T15:22:01.355Z,40.63
2018-08-10T15:24:29.639Z,41.80
2018-08-10T15:26:57.820Z,40.38
2018-08-10T15:29:26.656Z,39.78
2018-08-10T15:31:55.406Z,40.63
2018-08-10T15:34:23.900Z,39.79
2018-08-10T15:36:52.700Z,37.26
2018-08-10T15:39:20.931Z,39.67
2018-08-10T15:41:55.778Z,40.40
2018-08-10T15:44:23.997Z,41.74
2018-08-10T15:46:52.478Z,42.81
2018-08-10T15:49:20.764Z,42.50
2018-08-10T15:51:49.009Z,41.95
2018-08-10T15:54:17.338Z,41.81
2018-08-10T15:56:45.787Z,41.83
2018-08-10T15:59:14.744Z,41.31
2018-08-10T16:01:43.238Z,42.27
2018-08-10T16:04:11.534Z,43.56
2018-08-10T16:06:39.783Z,43.36
2018-08-10T16:09:10.605Z,42.91
2018-08-10T16:11:43.025Z,43.54
2018-08-10T16:14:13.159Z,40.82
2018-08-10T16:16:41.364Z,38.06
2018-08-10T16:19:10.009Z,37.93
2018-08-10T16:21:38.247Z,39.90
2018-08-10T16:24:07.540Z,37.50
2018-08-10T16:26:35.813Z,35.64
2018-08-10T16:29:04.066Z,35.74
2018-08-10T16:31:32.233Z,35.04
2018-08-10T16:34:00.611Z,33.81
2018-08-10T16:36:28.807Z,32.99
2018-08-10T16:38:57.008Z,33.34
2018-08-10T16:41:25.277Z,36.42
2018-08-10T16:43:53.470Z,37.10
2018-08-10T16:46:23.576Z,37.06
2018-08-10T16:48:52.373Z,37.58
2018-08-10T16:51:20.661Z,39.05
2018-08-10T16:53:49.474Z,37.91
2018-08-10T16:56:18.380Z,37.55
2018-08-10T16:58:47.531Z,36.92
2018-08-10T17:01:16.093Z,35.51
2018-08-10T17:03:45.510Z,33.49
2018-08-10T17:06:14.341Z,31.98
2018-08-10T17:08:43.051Z,30.97
2018-08-10T17:11:11.705Z,32.01
2018-08-10T17:13:39.908Z,33.28
2018-08-10T17:16:08.937Z,35.46
2018-08-10T17:18:37.376Z,34.84
2018-08-10T17:21:05.870Z,32.83
2018-08-10T17:23:35.189Z,33.55
2018-08-10T17:26:04.327Z,35.46
2018-08-10T17:28:32.528Z,36.44
2018-08-10T17:31:00.832Z,36.93
2018-08-10T17:33:29.089Z,36.91
2018-08-10T17:35:57.937Z,35.65
2018-08-10T17:38:28.635Z,34.93
2018-08-10T17:40:59.404Z,35.85
2018-08-10T17:43:32.674Z,35.21
2018-08-10T17:46:01.453Z,32.76
2018-08-10T17:48:30.566Z,30.73
2018-08-10T17:51:01.955Z,29.81
2018-08-10T17:53:30.637Z,29.24
2018-08-10T17:55:59.179Z,28.39
2018-08-10T17:58:27.925Z,28.21
2018-08-10T18:00:57.044Z,27.88
2018-08-10T18:03:25.855Z,27.65
2018-08-10T18:05:54.162Z,26.99
2018-08-10T18:08:22.413Z,27.13
2018-08-10T18:10:50.760Z,26.75
2018-08-10T18:13:21.192Z,26.45
2018-08-10T18:15:49.877Z,26.17
2018-08-10T18:18:20.020Z,26.07
2018-08-10T18:20:48.299Z,25.87
2018-08-10T18:23:17.060Z,25.81
2018-08-10T18:25:45.273Z,25.78
2018-08-10T18:28:13.616Z,25.58
2018-08-10T18:30:41.785Z,25.62
2018-08-10T18:33:11.473Z,25.45
2018-08-10T18:35:40.933Z,25.22
2018-08-10T18:38:09.164Z,25.02
2018-08-10T18:40:38.764Z,24.95
2018-08-10T18:43:07.328Z,24.75
2018-08-10T18:45:36.047Z,24.76
2018-08-10T18:48:04.710Z,24.59
2018-08-10T18:50:33.866Z,24.32
2018-08-10T18:53:03.072Z,24.30
2018-08-10T18:55:32.185Z,24.13
2018-08-10T18:58:00.539Z,24.07
2018-08-10T19:00:28.825Z,24.14
2018-08-10T19:02:57.583Z,24.12
2018-08-10T19:05:26.477Z,24.02
2018-08-10T19:07:54.742Z,23.92
2018-08-10T19:10:26.293Z,23.94
2018-08-10T19:12:54.550Z,23.86
2018-08-10T19:15:22.804Z,23.74
2018-08-10T19:17:51.030Z,23.63
2018-08-10T19:20:19.841Z,23.58
2018-08-10T19:22:48.123Z,23.57
2018-08-10T19:25:17.145Z,23.60
2018-08-10T19:27:47.826Z,23.58
2018-08-10T19:30:18.310Z,23.53
2018-08-10T19:32:47.564Z,23.47
2018-08-10T19:35:16.864Z,23.25
2018-08-10T19:37:45.419Z,23.10
2018-08-10T19:40:17.965Z,22.98
2018-08-10T19:42:46.231Z,22.92
2018-08-10T19:45:16.165Z,22.88
2018-08-10T19:47:44.516Z,22.94
2018-08-10T19:50:14.922Z,22.91
2018-08-10T19:52:43.730Z,22.83
2018-08-10T19:55:14.751Z,22.76
2018-08-10T19:57:43.304Z,22.75
2018-08-10T20:00:14.140Z,22.73
2018-08-10T20:02:42.956Z,22.76
2018-08-10T20:05:11.254Z,22.81
2018-08-10T20:07:39.460Z,22.58
2018-08-10T20:10:09.422Z,22.37
2018-08-10T20:12:37.912Z,22.17
2018-08-10T20:15:09.806Z,22.18
2018-08-10T20:17:38.198Z,22.13
2018-08-10T20:20:08.443Z,22.15
2018-08-10T20:22:36.730Z,22.28
2018-08-10T20:25:06.200Z,22.17
2018-08-10T20:27:34.905Z,22.05
2018-08-10T20:30:04.542Z,21.85
2018-08-10T20:32:32.836Z,21.77
2018-08-10T20:35:01.116Z,21.64
2018-08-10T20:37:29.324Z,21.61
2018-08-10T20:39:57.827Z,21.61
2018-08-10T20:42:26.498Z,21.51
2018-08-10T20:44:54.662Z,21.46
2018-08-10T20:47:22.917Z,21.39
2018-08-10T20:49:51.453Z,21.38
2018-08-10T20:52:20.458Z,21.39
2018-08-10T20:54:48.618Z,21.39
2018-08-10T20:57:17.136Z,21.38
2018-08-10T20:59:45.603Z,21.27
2018-08-10T21:02:13.959Z,21.21
2018-08-10T21:04:42.188Z,21.17
2018-08-10T21:07:10.758Z,21.13
2018-08-10T21:09:38.996Z,21.07
2018-08-10T21:12:07.934Z,21.05
2018-08-10T21:14:36.140Z,21.04
2018-08-10T21:17:04.728Z,20.98
2018-08-10T21:19:33.025Z,21.07
2018-08-10T21:22:01.211Z,21.14
2018-08-10T21:24:29.591Z,21.09
2018-08-10T21:26:57.819Z,21.02
2018-08-10T21:29:26.607Z,20.91
2018-08-10T21:31:55.100Z,20.99
2018-08-10T21:34:23.577Z,20.80
2018-08-10T21:36:51.821Z,20.58
2018-08-10T21:39:20.039Z,20.43
2018-08-10T21:41:49.184Z,20.34
2018-08-10T21:44:17.743Z,20.28
2018-08-10T21:46:46.304Z,20.28
2018-08-10T21:49:14.579Z,20.22
2018-08-10T21:51:42.799Z,20.24
2018-08-10T21:54:11.774Z,20.15
2018-08-10T21:56:40.192Z,20.01
2018-08-10T21:59:08.843Z,19.97
2018-08-10T22:01:37.078Z,20.18
2018-08-10T22:04:05.354Z,20.07
2018-08-10T22:06:33.916Z,19.98
2018-08-10T22:09:03.269Z,19.95
2018-08-10T22:11:38.262Z,19.89
2018-08-10T22:14:12.331Z,19.95
2018-08-10T22:16:46.268Z,19.94
2018-08-10T22:19:16.366Z,19.88
2018-08-10T22:21:45.658Z,19.76
2018-08-10T22:24:14.936Z,19.67
2018-08-10T22:26:43.498Z,19.80
2018-08-10T22:29:12.000Z,19.80
2018-08-10T22:31:40.452Z,19.73
2018-08-10T22:34:09.174Z,19.66
2018-08-10T22:36:37.480Z,19.57
2018-08-10T22:39:08.200Z,19.49
2018-08-10T22:41:36.795Z,19.43
2018-08-10T22:44:05.734Z,19.47
2018-08-10T22:46:34.210Z,19.43
2018-08-10T22:49:02.724Z,19.30
2018-08-10T22:51:37.597Z,19.21
2018-08-10T22:54:06.112Z,19.13
2018-08-10T22:56:34.921Z,19.21
2018-08-10T22:59:03.169Z,19.22
2018-08-10T23:01:31.680Z,19.32
2018-08-10T23:04:00.231Z,19.45
2018-08-10T23:06:28.524Z,19.34
2018-08-10T23:08:57.066Z,19.31
2018-08-10T23:11:25.220Z,19.36
2018-08-10T23:13:53.448Z,19.30
2018-08-10T23:16:22.017Z,19.29
2018-08-10T23:18:51.532Z,19.29
2018-08-10T23:21:20.364Z,19.26
2018-08-10T23:23:48.696Z,19.29
2018-08-10T23:26:17.279Z,19.37
2018-08-10T23:28:45.505Z,19.28
2018-08-10T23:31:13.736Z,19.17
2018-08-10T23:33:42.339Z,19.27
2018-08-10T23:36:11.100Z,19.39
2018-08-10T23:38:40.921Z,19.38
2018-08-10T23:41:09.327Z,19.27
2018-08-10T23:43:38.260Z,19.26
2018-08-10T23:46:08.041Z,19.11
2018-08-10T23:48:36.285Z,19.05
2018-08-10T23:51:04.565Z,19.00
2018-08-10T23:53:33.093Z,18.92
2018-08-10T23:56:01.820Z,18.96
2018-08-10T23:58:32.634Z,18.97
